Cozumel, Mexico

3:53 PM EST on February 06, 2016 (GMT -0500)
APRSWXNET | | Change Station
CLOSE
Current Station
Personal Weather Station
Location: Cozumel,
Elevation: 36 ft
Nearby Weather Stations

Elev 36 ft 20.51 °N, 86.93 °W | Updated 36 minutes ago

Overcast
Overcast
75 °F
Feels Like 76 °F
N
16
Wind Variable Wind from North
Gusts 23.0 mph

Today
High -- | Low -- °F
--% Chance of Precip.
Yesterday
High -- | Low -- °F
Precip. -- in
Pressure 30.11 in
Visibility 6.0 miles
Clouds Mostly Cloudy 1500 ft
Mostly Cloudy 7000 ft
Overcast 9000 ft
Heat Index 76 °F
Dew Point 65 °F
Humidity 72%
Rainfall in
Snow Depth Not available.
7:22 AM 6:41 PM
Waning Crescent, 4% visible
METAR MMUN 061945Z 33007KT 6SM BKN015 BKN070 OVC090 23/17 A3011 RMK 8/77/ HZY
Pressure 30.11 in
Visibility 6.0 miles
Clouds Mostly Cloudy 1500 ft
Mostly Cloudy 7000 ft
Overcast 9000 ft
Heat Index 76 °F
Dew Point 65 °F
Humidity 72%
Rainfall in
Snow Depth Not available.
7:22 AM 6:41 PM
Waning Crescent, 4% visible
METAR MMUN 061945Z 33007KT 6SM BKN015 BKN070 OVC090 23/17 A3011 RMK 8/77/ HZY

10-Day Weather Forecast

No radar image for this location.
×

Almanac

Astronomy

Feb. 06, 2016 Rise Set
Actual Time
Civil Twilight
Nautical Twilight
Astronomical Twilight
Moon
Length of Visible Light
Length of Day
Tomorrow will be .
, % of the Moon is Illuminated

Today's Extremes

Country Highs Country Lows

Community

WunderPhotos

Upload Photos

1,891,046 photos uploaded!

WunderBlog® & News

Nearby

Air Quality

  Air Quality AQ Index Pollutant
Not available.

Snow Depth

Station Depth Elevation

Earthquake Activity

City Distance Mag. Time & Date
Minimum magnitude displayed is 2.5.

Coastal Water Temperatures

Place Temperature

Stations

Nearby Weather Stations

Station Location Temp. Windchill Dew Point Humidity Wind Precip. Elev Updated Type